Time;durP1;ratioP1;P1;durP2;ratioP2;P2;SDS_P1;SDS_P2;PMS_P1;PMS_P2;Temp;Humidity;BMP_temperature;BMP_pressure;BME280_temperature;BME280_humidity;BME280_pressure;Samples;Min_cycle;Max_cycle;Signal;HPM_P1;HPM_P2
2023/02/02 00:01:53;;;;;;;10.77;5.70;;;5.90;99.90;;;;;;5055238;28;20125;-87
2023/02/02 00:04:29;;;;;;;13.80;6.07;;;5.80;99.90;;;;;;5037883;28;20404;-87
2023/02/02 00:06:58;;;;;;;13.52;5.60;;;6.00;99.90;;;;;;5055084;28;20032;-87
2023/02/02 00:09:27;;;;;;;12.77;5.97;;;5.70;99.90;;;;;;5055549;28;20021;-88
2023/02/02 00:11:54;;;;;;;15.55;6.60;;;5.50;99.90;;;;;;5054797;28;20041;-88
2023/02/02 00:14:20;;;;;;;15.30;5.90;;;5.50;99.90;;;;;;5055058;28;20079;-88
2023/02/02 00:16:47;;;;;;;15.05;5.68;;;6.00;99.90;;;;;;5054015;28;20033;-87
2023/02/02 00:19:16;;;;;;;17.05;7.55;;;5.90;99.90;;;;;;5055163;28;20025;-88
2023/02/02 00:21:42;;;;;;;16.55;7.97;;;5.70;99.90;;;;;;5036981;28;20056;-87
2023/02/02 00:24:09;;;;;;;20.83;8.35;;;5.20;99.90;;;;;;5055001;28;20024;-87
2023/02/02 00:26:36;;;;;;;22.60;8.77;;;5.20;99.90;;;;;;5036630;28;20029;-89
2023/02/02 00:29:03;;;;;;;20.63;8.77;;;5.30;99.90;;;;;;5037246;28;20081;-88
2023/02/02 00:31:29;;;;;;;24.23;10.60;;;5.70;99.90;;;;;;5054870;28;20086;-88
2023/02/02 00:33:54;;;;;;;19.17;9.90;;;5.40;99.90;;;;;;5036693;28;20452;-88
2023/02/02 00:36:20;;;;;;;27.75;11.80;;;5.00;99.90;;;;;;5054793;28;20067;-90
2023/02/02 00:38:48;;;;;;;22.02;10.63;;;5.20;99.90;;;;;;5036846;28;20032;-90
2023/02/02 00:41:13;;;;;;;20.98;10.05;;;5.60;99.90;;;;;;5054065;28;20090;-88
2023/02/02 00:43:39;;;;;;;19.25;9.80;;;5.10;99.90;;;;;;5036618;28;20032;-89
2023/02/02 00:46:05;;;;;;;24.63;10.25;;;5.00;99.90;;;;;;5054897;28;20103;-89
2023/02/02 00:48:31;;;;;;;22.33;10.27;;;5.10;99.90;;;;;;5054796;28;20025;-90
2023/02/02 00:50:56;;;;;;;23.73;10.52;;;5.10;99.90;;;;;;5054421;28;20033;-88
2023/02/02 00:53:22;;;;;;;22.40;10.43;;;5.20;99.90;;;;;;5054494;28;20033;-88
2023/02/02 00:55:48;;;;;;;15.50;10.10;;;5.00;99.90;;;;;;5036345;28;20052;-88
2023/02/02 00:58:13;;;;;;;19.10;10.75;;;5.00;99.90;;;;;;5036694;28;20044;-89
2023/02/02 01:00:39;;;;;;;20.98;11.55;;;4.70;99.90;;;;;;5045607;28;20416;-87
2023/02/02 01:03:05;;;;;;;18.90;11.25;;;4.90;99.90;;;;;;5074465;28;20063;-90
2023/02/02 01:05:35;;;;;;;20.50;11.35;;;4.60;99.90;;;;;;5074448;28;20021;-88
2023/02/02 01:08:01;;;;;;;21.13;11.10;;;4.60;99.90;;;;;;5056383;28;20075;-90
2023/02/02 01:10:26;;;;;;;19.60;10.98;;;5.00;99.90;;;;;;5073750;28;20032;-90
2023/02/02 01:12:52;;;;;;;21.52;10.88;;;5.10;99.90;;;;;;5074012;28;20066;-90
2023/02/02 01:15:18;;;;;;;16.50;10.30;;;4.70;99.90;;;;;;5074015;28;20021;-90
2023/02/02 01:17:44;;;;;;;15.52;9.60;;;5.00;99.90;;;;;;5056265;28;20029;-89
2023/02/02 01:20:18;;;;;;;24.50;9.30;;;4.70;99.90;;;;;;5074124;28;20060;-90
2023/02/02 01:22:45;;;;;;;15.30;8.02;;;4.60;99.90;;;;;;5073683;28;20020;-90
2023/02/02 01:25:12;;;;;;;15.30;8.10;;;4.90;99.90;;;;;;5073537;28;20081;-88
2023/02/02 01:27:37;;;;;;;17.65;8.15;;;5.10;99.90;;;;;;5055485;28;20090;-90
2023/02/02 01:30:04;;;;;;;15.32;7.00;;;4.70;99.90;;;;;;5074278;28;20063;-89
2023/02/02 01:32:29;;;;;;;13.95;6.38;;;4.50;99.90;;;;;;5073394;28;20578;-89
2023/02/02 01:34:55;;;;;;;15.40;6.43;;;4.60;99.90;;;;;;5055638;28;20163;-87
2023/02/02 01:37:21;;;;;;;15.05;7.05;;;4.80;99.90;;;;;;5073504;28;20070;-88
2023/02/02 01:39:47;;;;;;;15.52;6.97;;;4.50;99.90;;;;;;5055553;28;20039;-90
2023/02/02 01:42:18;;;;;;;15.13;6.95;;;4.50;99.90;;;;;;5055449;28;20029;-90
2023/02/02 01:45:15;;;;;;;15.90;7.15;;;4.60;99.90;;;;;;5055620;28;20052;-90
2023/02/02 01:47:57;;;;;;;13.25;7.28;;;4.60;99.90;;;;;;5073532;28;20476;-88
2023/02/02 01:50:29;;;;;;;12.77;7.50;;;4.90;99.90;;;;;;5073039;28;20485;-87
2023/02/02 01:52:59;;;;;;;14.52;6.60;;;4.70;99.90;;;;;;5072947;28;20115;-89
2023/02/02 01:55:28;;;;;;;14.13;6.95;;;4.50;99.90;;;;;;5058580;28;20389;-90
2023/02/02 01:58:01;;;;;;;14.38;6.90;;;4.90;99.90;;;;;;5053321;28;20021;-90
2023/02/02 02:00:27;;;;;;;16.92;6.93;;;5.00;99.90;;;;;;5035044;28;20750;-90
2023/02/02 02:03:04;;;;;;;13.85;6.97;;;4.80;99.90;;;;;;5053273;28;20036;-90
2023/02/02 02:05:34;;;;;;;16.52;6.93;;;4.80;99.90;;;;;;5035788;28;20033;-88
2023/02/02 02:08:08;;;;;;;16.33;7.05;;;4.80;99.90;;;;;;5052487;28;20397;-88
2023/02/02 02:10:34;;;;;;;16.58;7.30;;;4.60;99.90;;;;;;5053157;28;20029;-90
2023/02/02 02:12:59;;;;;;;14.75;6.25;;;4.50;99.90;;;;;;5052892;28;20052;-88
2023/02/02 02:18:26;;;;;;;14.13;6.82;;;4.70;99.90;;;;;;5053148;28;20032;-90
2023/02/02 02:27:58;;;;;;;15.23;6.45;;;4.60;99.90;;;;;;4991596;28;20022;-88
2023/02/02 02:30:45;;;;;;;16.33;6.30;;;4.50;99.90;;;;;;4990981;28;20076;-90
2023/02/02 02:33:14;;;;;;;20.55;7.45;;;4.60;99.90;;;;;;4991572;28;20489;-88
2023/02/02 02:35:45;;;;;;;17.98;7.13;;;4.50;99.90;;;;;;4974990;28;20069;-90
2023/02/02 02:38:40;;;;;;;18.20;7.93;;;4.50;99.90;;;;;;4991342;28;20037;-88
2023/02/02 02:41:15;;;;;;;16.85;7.53;;;4.30;99.90;;;;;;4990979;28;20014;-87
2023/02/02 02:43:47;;;;;;;15.60;7.30;;;4.70;99.90;;;;;;4991197;28;20038;-89
2023/02/02 02:46:12;;;;;;;15.93;7.30;;;4.50;99.90;;;;;;4974797;28;20030;-90
2023/02/02 02:48:38;;;;;;;15.32;8.02;;;4.40;99.90;;;;;;4991220;28;20109;-89
2023/02/02 02:51:53;;;;;;;15.23;7.60;;;4.00;99.90;;;;;;4974233;28;20070;-88
2023/02/02 02:54:29;;;;;;;16.45;7.07;;;4.00;99.90;;;;;;4978299;28;20097;-90
2023/02/02 02:57:16;;;;;;;16.10;6.85;;;3.80;99.90;;;;;;4991264;28;20163;-90
2023/02/02 03:00:15;;;;;;;16.17;7.28;;;3.70;99.90;;;;;;4989523;28;20077;-89
2023/02/02 03:02:49;;;;;;;15.50;6.90;;;3.60;99.90;;;;;;4957938;28;20050;-90
2023/02/02 03:05:14;;;;;;;17.38;7.10;;;3.70;99.90;;;;;;5052055;28;20021;-90
2023/02/02 03:07:46;;;;;;;12.82;6.88;;;4.00;99.90;;;;;;5052695;28;20033;-89
2023/02/02 03:10:16;;;;;;;15.23;7.25;;;3.60;99.90;;;;;;5052298;28;20028;-89
2023/02/02 03:12:46;;;;;;;12.65;7.35;;;3.70;99.90;;;;;;5052103;28;20048;-90
2023/02/02 03:15:13;;;;;;;16.70;7.15;;;4.20;99.90;;;;;;5034937;28;20028;-90
2023/02/02 03:17:40;;;;;;;14.85;7.18;;;3.70;99.90;;;;;;5052356;28;20043;-90
2023/02/02 03:20:06;;;;;;;15.95;6.70;;;4.00;99.90;;;;;;5051860;28;20492;-90
2023/02/02 03:22:32;;;;;;;16.63;7.55;;;3.60;99.90;;;;;;5052371;28;20020;-91
2023/02/02 03:24:58;;;;;;;15.52;7.00;;;3.70;99.90;;;;;;5052421;28;20536;-89
2023/02/02 03:27:24;;;;;;;17.50;6.85;;;3.90;99.90;;;;;;5034591;28;20033;-89
2023/02/02 03:29:50;;;;;;;19.25;7.88;;;3.60;99.90;;;;;;5034245;28;20031;-89
2023/02/02 03:32:16;;;;;;;13.70;7.68;;;3.90;99.90;;;;;;5034391;28;20049;-89
2023/02/02 03:34:42;;;;;;;17.73;7.82;;;3.40;99.90;;;;;;5051492;28;20025;-90
2023/02/02 03:37:07;;;;;;;15.75;7.13;;;4.00;99.90;;;;;;5052060;28;20567;-88
2023/02/02 03:39:33;;;;;;;16.30;7.45;;;3.30;99.90;;;;;;5034042;28;20021;-89
2023/02/02 03:41:58;;;;;;;17.67;7.80;;;3.30;99.90;;;;;;5052257;28;20044;-89
2023/02/02 03:44:24;;;;;;;16.25;7.25;;;3.70;99.90;;;;;;5034142;28;20512;-90
2023/02/02 03:46:53;;;;;;;18.60;6.47;;;3.30;99.90;;;;;;5034085;28;20025;-89
2023/02/02 03:49:19;;;;;;;17.45;7.35;;;3.60;99.90;;;;;;5051806;28;20017;-89
2023/02/02 03:51:45;;;;;;;15.43;7.57;;;3.70;99.90;;;;;;5054008;28;20032;-89
2023/02/02 03:54:11;;;;;;;16.58;7.82;;;3.20;99.90;;;;;;5055672;28;20021;-89
2023/02/02 03:56:37;;;;;;;20.45;7.78;;;3.30;99.90;;;;;;5055746;28;20021;-88
2023/02/02 03:59:02;;;;;;;14.80;8.05;;;3.40;99.90;;;;;;5055953;28;20020;-91
2023/02/02 04:01:28;;;;;;;15.73;7.95;;;3.40;99.90;;;;;;5064798;28;20021;-91
2023/02/02 04:03:55;;;;;;;15.43;7.75;;;3.10;99.90;;;;;;5057358;28;20034;-91
2023/02/02 04:06:22;;;;;;;22.48;8.60;;;3.10;99.90;;;;;;5075760;28;20020;-90
2023/02/02 04:08:47;;;;;;;20.00;8.52;;;3.40;99.90;;;;;;5076133;28;20025;-91
2023/02/02 04:11:13;;;;;;;16.58;7.93;;;3.20;99.90;;;;;;5075500;28;20107;-91
2023/02/02 04:13:39;;;;;;;17.17;8.20;;;3.10;99.90;;;;;;5075827;28;20044;-91
2023/02/02 04:16:05;;;;;;;18.02;7.82;;;3.10;99.90;;;;;;5076081;28;20039;-91
2023/02/02 04:18:31;;;;;;;14.65;7.93;;;2.90;99.90;;;;;;5075581;28;20025;-91
2023/02/02 04:21:00;;;;;;;15.75;6.88;;;3.30;99.90;;;;;;5057722;28;20074;-89
2023/02/02 04:23:27;;;;;;;11.20;6.85;;;3.50;99.90;;;;;;5075813;28;20024;-89
2023/02/02 04:25:53;;;;;;;16.35;6.60;;;3.20;99.90;;;;;;5075720;28;20029;-91
2023/02/02 04:28:20;;;;;;;19.95;7.32;;;3.00;99.90;;;;;;5075612;28;20051;-91
2023/02/02 04:30:45;;;;;;;15.45;6.30;;;3.60;99.90;;;;;;5057489;28;20028;-91
2023/02/02 04:33:11;;;;;;;16.73;6.72;;;3.00;99.90;;;;;;5057269;28;20044;-91
2023/02/02 04:35:36;;;;;;;14.90;7.07;;;3.00;99.90;;;;;;5057395;28;20021;-91
2023/02/02 04:38:02;;;;;;;14.40;7.10;;;3.40;99.90;;;;;;5075451;28;20024;-91
2023/02/02 04:40:28;;;;;;;17.27;6.90;;;2.90;99.90;;;;;;5075112;28;20040;-90
2023/02/02 04:42:53;;;;;;;15.45;6.38;;;2.90;99.90;;;;;;5075239;28;20479;-91
2023/02/02 04:45:19;;;;;;;15.25;6.45;;;3.40;99.90;;;;;;5075108;28;20111;-91
2023/02/02 04:47:44;;;;;;;12.30;6.60;;;3.00;99.90;;;;;;5074981;28;20024;-92
2023/02/02 04:50:11;;;;;;;14.75;6.07;;;2.90;99.90;;;;;;5075067;28;20032;-91
2023/02/02 04:52:36;;;;;;;14.43;6.35;;;2.80;99.90;;;;;;5074944;28;20033;-92
2023/02/02 04:55:03;;;;;;;14.70;6.20;;;3.00;99.90;;;;;;5045686;28;20028;-91
2023/02/02 04:57:29;;;;;;;17.45;6.03;;;2.80;99.90;;;;;;5055401;28;20063;-92
2023/02/02 04:59:54;;;;;;;11.35;6.28;;;3.10;99.90;;;;;;5037054;28;20045;-91
2023/02/02 05:02:20;;;;;;;12.95;6.18;;;2.90;99.90;;;;;;5036447;28;20021;-91
2023/02/02 05:04:46;;;;;;;20.27;6.32;;;2.70;99.90;;;;;;5037066;28;20036;-91
2023/02/02 05:07:11;;;;;;;13.40;6.13;;;2.30;99.90;;;;;;5054953;28;20021;-91
2023/02/02 05:09:37;;;;;;;14.52;6.68;;;2.30;99.90;;;;;;5054966;28;20047;-91
2023/02/02 05:12:03;;;;;;;20.75;6.93;;;2.80;99.90;;;;;;5054330;28;20029;-92
2023/02/02 05:14:28;;;;;;;17.88;6.53;;;2.50;99.90;;;;;;5055376;28;20021;-91
2023/02/02 05:16:54;;;;;;;17.90;6.68;;;2.70;99.90;;;;;;5036513;28;20481;-91
2023/02/02 05:19:20;;;;;;;20.35;6.90;;;2.50;99.90;;;;;;5054872;28;20434;-91
2023/02/02 05:21:47;;;;;;;16.30;7.00;;;2.40;99.90;;;;;;5036663;28;20026;-91
2023/02/02 05:24:13;;;;;;;15.10;6.22;;;2.30;99.90;;;;;;5054549;28;20017;-91
2023/02/02 05:26:39;;;;;;;14.35;7.05;;;3.00;99.90;;;;;;5055273;28;20112;-91
2023/02/02 05:29:05;;;;;;;18.20;7.25;;;2.30;99.90;;;;;;5054421;28;20374;-92
2023/02/02 05:31:31;;;;;;;14.65;7.57;;;2.50;99.90;;;;;;5036075;28;20035;-89
2023/02/02 05:33:57;;;;;;;15.68;7.43;;;2.60;99.90;;;;;;5054233;28;20506;-91
2023/02/02 05:36:23;;;;;;;19.88;7.72;;;1.90;99.90;;;;;;5036664;28;20028;-91
2023/02/02 05:38:49;;;;;;;19.00;8.02;;;2.00;99.90;;;;;;5036644;28;20033;-91
2023/02/02 05:41:14;;;;;;;15.02;7.00;;;2.50;99.90;;;;;;5036642;28;20025;-92
2023/02/02 05:43:40;;;;;;;15.48;7.55;;;2.50;99.90;;;;;;5054475;28;20512;-91
2023/02/02 05:46:05;;;;;;;18.08;7.95;;;2.50;99.90;;;;;;5036156;28;20029;-91
2023/02/02 05:48:31;;;;;;;16.48;7.03;;;2.90;99.90;;;;;;5053831;28;20032;-92
2023/02/02 05:51:05;;;;;;;18.70;6.95;;;2.30;99.90;;;;;;5054118;28;20036;-91
2023/02/02 05:53:32;;;;;;;20.50;7.57;;;2.30;99.90;;;;;;5035852;28;20514;-91
2023/02/02 05:55:58;;;;;;;21.60;6.70;;;2.60;99.90;;;;;;5035632;28;20474;-92
2023/02/02 05:58:24;;;;;;;22.50;7.82;;;2.50;99.90;;;;;;5052921;28;20067;-90
2023/02/02 06:00:50;;;;;;;17.20;7.57;;;2.20;99.90;;;;;;5052838;28;20040;-91
2023/02/02 06:03:16;;;;;;;17.13;7.43;;;2.20;99.90;;;;;;5053233;28;20021;-92
2023/02/02 06:05:41;;;;;;;14.60;7.03;;;2.50;99.90;;;;;;5053254;28;20409;-95
2023/02/02 06:08:07;;;;;;;20.15;6.68;;;2.50;99.90;;;;;;5053808;28;20175;-93
2023/02/02 06:10:33;;;;;;;16.83;6.00;;;2.60;99.90;;;;;;5035589;28;20123;-94
2023/02/02 06:12:58;;;;;;;16.13;6.47;;;2.40;99.90;;;;;;5035446;28;20044;-92
2023/02/02 06:15:26;;;;;;;17.05;6.32;;;2.30;99.90;;;;;;5051899;28;20035;-91
2023/02/02 06:17:52;;;;;;;13.93;6.70;;;2.60;99.90;;;;;;5053227;28;20027;-92
2023/02/02 06:20:17;;;;;;;18.17;6.78;;;3.10;99.90;;;;;;5053061;28;20029;-90
2023/02/02 06:22:43;;;;;;;19.00;7.32;;;2.80;99.90;;;;;;5035706;28;20045;-91
2023/02/02 06:25:09;;;;;;;15.52;6.63;;;2.80;99.90;;;;;;5053757;28;20361;-91
2023/02/02 06:27:35;;;;;;;19.48;6.95;;;3.10;99.90;;;;;;5052430;28;20024;-92
2023/02/02 06:30:00;;;;;;;16.20;6.85;;;3.20;99.90;;;;;;5035047;28;20393;-91
2023/02/02 06:32:29;;;;;;;22.35;7.00;;;3.30;99.90;;;;;;5034969;28;20049;-92
2023/02/02 06:34:54;;;;;;;17.17;7.18;;;3.00;99.90;;;;;;5052774;28;20085;-92
2023/02/02 06:37:20;;;;;;;19.60;6.95;;;3.30;99.90;;;;;;5053160;28;20025;-91
2023/02/02 06:39:46;;;;;;;16.33;7.35;;;3.20;99.90;;;;;;5053139;28;20043;-92
2023/02/02 06:42:11;;;;;;;14.52;6.47;;;3.30;99.90;;;;;;5034867;28;20035;-92
2023/02/02 06:44:37;;;;;;;19.23;7.32;;;3.20;99.90;;;;;;5034839;28;20021;-91
2023/02/02 06:47:03;;;;;;;18.52;6.95;;;3.00;99.90;;;;;;5052630;28;20393;-92
2023/02/02 06:49:28;;;;;;;16.65;7.65;;;2.70;99.90;;;;;;5052352;28;20503;-92
2023/02/02 06:51:54;;;;;;;15.50;7.20;;;2.80;99.90;;;;;;5047394;28;20025;-92
2023/02/02 06:54:19;;;;;;;21.20;9.27;;;3.10;99.90;;;;;;5049447;28;20040;-91
2023/02/02 06:56:45;;;;;;;14.23;8.55;;;3.40;99.90;;;;;;5052151;28;20033;-91
2023/02/02 06:59:11;;;;;;;19.55;8.48;;;2.90;99.90;;;;;;5052377;28;20531;-91
2023/02/02 07:01:37;;;;;;;18.52;8.55;;;3.20;99.90;;;;;;5051455;28;20029;-91
2023/02/02 07:04:02;;;;;;;25.17;9.23;;;3.00;99.90;;;;;;5072865;28;20044;-90
2023/02/02 07:06:28;;;;;;;17.52;8.27;;;3.20;99.90;;;;;;5072519;28;20035;-91
2023/02/02 07:08:55;;;;;;;18.35;8.05;;;3.10;99.90;;;;;;5072537;28;20096;-91
2023/02/02 07:11:21;;;;;;;18.88;8.23;;;2.90;99.90;;;;;;5072500;28;20025;-91
2023/02/02 07:13:48;;;;;;;18.58;8.30;;;3.20;99.90;;;;;;5055035;28;20127;-91
2023/02/02 07:16:15;;;;;;;25.80;8.68;;;3.40;99.90;;;;;;5072159;28;20032;-91
2023/02/02 07:18:46;;;;;;;15.88;8.27;;;3.10;99.90;;;;;;5054414;28;20401;-87
2023/02/02 07:21:18;;;;;;;15.65;8.07;;;3.40;99.90;;;;;;5061401;28;20025;-89
2023/02/02 07:23:43;;;;;;;19.40;8.82;;;3.70;99.90;;;;;;5051753;28;20037;-91
2023/02/02 07:26:11;;;;;;;19.33;7.80;;;3.60;99.90;;;;;;5053443;28;20503;-93
2023/02/02 07:28:36;;;;;;;17.55;8.00;;;3.70;99.90;;;;;;5056165;28;20033;-89
2023/02/02 07:31:15;;;;;;;18.92;7.45;;;4.30;99.90;;;;;;5055560;28;20064;-88
2023/02/02 07:33:42;;;;;;;24.05;7.95;;;3.90;99.90;;;;;;5055291;28;20410;-88
2023/02/02 07:36:08;;;;;;;22.27;9.20;;;4.50;99.90;;;;;;5054751;28;20025;-86
2023/02/02 07:38:34;;;;;;;22.20;8.63;;;3.90;99.90;;;;;;5055651;28;20110;-89
2023/02/02 07:41:00;;;;;;;22.25;9.88;;;4.10;99.90;;;;;;5055037;28;20049;-89
2023/02/02 07:43:25;;;;;;;21.08;8.35;;;4.00;99.90;;;;;;5037579;28;20366;-89
2023/02/02 07:45:51;;;;;;;18.23;9.25;;;4.50;99.90;;;;;;5055498;28;20032;-88
2023/02/02 07:48:17;;;;;;;19.63;9.23;;;4.40;99.90;;;;;;5037590;28;20029;-88
2023/02/02 07:50:42;;;;;;;23.02;9.00;;;4.50;99.90;;;;;;5055129;28;20397;-89
2023/02/02 07:53:08;;;;;;;23.23;8.98;;;4.70;99.90;;;;;;5037567;28;20036;-88
2023/02/02 07:55:33;;;;;;;20.77;8.75;;;5.10;99.90;;;;;;5036659;28;20377;-89
2023/02/02 07:58:00;;;;;;;17.05;8.50;;;5.20;99.90;;;;;;5055109;28;20082;-89
2023/02/02 08:00:26;;;;;;;21.42;9.25;;;4.80;99.90;;;;;;5054636;28;20021;-88
2023/02/02 08:02:52;;;;;;;28.15;13.13;;;5.30;99.90;;;;;;5054909;28;20031;-88
2023/02/02 08:05:19;;;;;;;22.98;10.65;;;5.20;99.90;;;;;;5053748;28;20488;-89
2023/02/02 08:07:44;;;;;;;19.15;9.18;;;5.40;99.90;;;;;;5054839;28;20496;-88
2023/02/02 08:10:11;;;;;;;22.45;8.75;;;4.90;99.90;;;;;;5036528;28;20017;-88
2023/02/02 08:12:36;;;;;;;21.33;8.20;;;4.80;99.90;;;;;;5054892;28;20041;-88
2023/02/02 08:15:02;;;;;;;26.15;8.63;;;4.90;99.90;;;;;;5055157;28;20025;-88
2023/02/02 08:17:28;;;;;;;23.65;7.97;;;4.70;99.90;;;;;;5036802;28;20033;-89
2023/02/02 08:19:53;;;;;;;16.92;8.32;;;4.80;99.90;;;;;;5036913;28;20032;-89
2023/02/02 08:22:19;;;;;;;22.20;8.60;;;5.00;99.90;;;;;;5054681;28;20037;-89
2023/02/02 08:24:45;;;;;;;27.77;9.88;;;5.20;99.90;;;;;;5054538;28;20036;-89
2023/02/02 08:27:10;;;;;;;29.52;9.68;;;5.10;99.90;;;;;;5054510;28;20021;-88
2023/02/02 08:29:37;;;;;;;23.42;10.25;;;5.20;99.90;;;;;;5036474;28;20112;-88
2023/02/02 08:32:03;;;;;;;20.58;9.73;;;4.80;99.90;;;;;;5054156;28;20032;-89
2023/02/02 08:34:29;;;;;;;23.02;10.20;;;5.10;99.90;;;;;;5054785;28;20028;-89
2023/02/02 08:36:54;;;;;;;24.17;9.07;;;5.00;99.90;;;;;;5053848;28;20029;-89
2023/02/02 08:39:20;;;;;;;31.77;10.85;;;5.50;99.90;;;;;;5035512;28;20029;-89
2023/02/02 08:41:46;;;;;;;30.80;10.57;;;5.30;99.90;;;;;;5053202;28;20052;-88
2023/02/02 08:44:17;;;;;;;23.17;9.73;;;5.60;99.90;;;;;;5055270;28;20057;-88
2023/02/02 08:46:43;;;;;;;21.50;9.20;;;5.80;99.90;;;;;;5036383;28;20025;-88
2023/02/02 08:49:12;;;;;;;21.40;10.40;;;6.30;99.90;;;;;;5053954;28;20453;-88
2023/02/02 08:51:38;;;;;;;24.63;9.88;;;6.30;99.90;;;;;;5054840;28;20032;-88
2023/02/02 08:54:03;;;;;;;21.80;10.32;;;6.60;99.90;;;;;;5053566;28;20111;-88
2023/02/02 08:56:29;;;;;;;19.42;9.85;;;9.60;99.90;;;;;;5054071;28;20459;-88
2023/02/02 08:58:59;;;;;;;25.52;11.02;;;11.70;99.90;;;;;;5055425;28;20048;-88
2023/02/02 09:01:27;;;;;;;17.27;9.52;;;12.90;99.90;;;;;;5054044;28;20473;-88
2023/02/02 09:04:03;;;;;;;21.55;10.60;;;12.10;99.90;;;;;;5035892;28;20481;-85
2023/02/02 09:06:31;;;;;;;21.33;10.27;;;13.80;99.90;;;;;;5053434;28;20060;-86
2023/02/02 09:08:57;;;;;;;23.83;10.82;;;15.10;99.90;;;;;;5053375;28;20090;-86
2023/02/02 09:11:23;;;;;;;27.40;10.77;;;16.70;99.90;;;;;;5053715;28;20481;-86
2023/02/02 09:13:53;;;;;;;35.42;11.57;;;17.80;99.90;;;;;;5053470;28;20067;-86
2023/02/02 09:16:20;;;;;;;22.25;10.52;;;17.10;99.90;;;;;;5053610;28;20029;-86
2023/02/02 09:18:46;;;;;;;25.17;12.73;;;15.80;99.90;;;;;;5053603;28;20017;-86
2023/02/02 09:21:14;;;;;;;27.02;11.95;;;14.80;99.90;;;;;;5053487;28;20028;-86
2023/02/02 09:23:42;;;;;;;25.30;11.07;;;16.00;99.90;;;;;;5053003;28;20419;-86
2023/02/02 09:26:10;;;;;;;26.35;11.55;;;16.70;99.90;;;;;;5053375;28;20056;-85
2023/02/02 09:28:36;;;;;;;31.13;11.10;;;18.80;99.90;;;;;;5035826;28;20029;-86
2023/02/02 09:31:02;;;;;;;22.23;10.20;;;18.10;99.90;;;;;;5053156;28;20021;-86
2023/02/02 09:33:28;;;;;;;32.83;10.85;;;17.80;99.90;;;;;;5053183;28;20056;-86
2023/02/02 09:35:54;;;;;;;28.35;11.32;;;18.70;99.90;;;;;;5053932;28;20009;-86
2023/02/02 09:38:19;;;;;;;28.08;11.20;;;20.00;99.90;;;;;;5034812;28;20044;-86
2023/02/02 09:40:45;;;;;;;25.80;10.55;;;19.90;99.90;;;;;;5053575;28;20460;-86
2023/02/02 09:43:36;;;;;;;20.60;10.30;;;21.10;99.90;;;;;;5053168;28;20024;-86
2023/02/02 09:46:19;;;;;;;26.15;10.13;;;21.70;99.90;;;;;;5053089;28;20032;-86
2023/02/02 09:48:54;;;;;;;22.52;9.95;;;21.30;99.90;;;;;;5053494;28;20036;-86
2023/02/02 09:51:24;;;;;;;27.85;10.00;;;21.70;99.90;;;;;;5052581;28;20021;-86
2023/02/02 09:53:53;;;;;;;17.90;9.52;;;22.10;99.90;;;;;;5052765;28;20412;-86
2023/02/02 09:56:40;;;;;;;32.45;9.63;;;22.50;99.90;;;;;;5053141;28;20027;-86
2023/02/02 09:59:11;;;;;;;24.90;9.82;;;22.40;99.90;;;;;;5053105;28;20021;-86
2023/02/02 10:01:41;;;;;;;31.02;10.50;;;22.80;99.90;;;;;;5052340;28;20511;-86
2023/02/02 10:04:24;;;;;;;24.10;9.65;;;23.30;99.90;;;;;;5052588;28;20115;-86
2023/02/02 10:06:54;;;;;;;19.92;10.48;;;23.20;99.90;;;;;;5053116;28;20052;-86
2023/02/02 10:09:39;;;;;;;20.63;9.45;;;23.80;99.90;;;;;;5052627;28;20357;-86
2023/02/02 10:12:46;;;;;;;20.83;9.35;;;23.90;99.90;;;;;;5034534;28;20503;-86
2023/02/02 10:15:38;;;;;;;20.70;8.27;;;23.10;99.90;;;;;;5052384;28;20082;-86
2023/02/02 10:18:26;;;;;;;14.38;6.82;;;23.30;99.90;;;;;;5052777;28;20028;-86
2023/02/02 10:21:01;;;;;;;15.82;7.38;;;23.60;99.90;;;;;;5051867;28;20029;-86
2023/02/02 10:23:32;;;;;;;20.20;7.68;;;24.30;99.90;;;;;;5034448;28;20400;-86
2023/02/02 10:26:03;;;;;;;23.63;7.80;;;24.60;99.90;;;;;;5052323;28;20017;-86
2023/02/02 10:28:35;;;;;;;17.77;7.10;;;23.10;99.90;;;;;;5052612;28;20104;-86
2023/02/02 10:31:01;;;;;;;16.15;7.18;;;23.90;99.90;;;;;;5034460;28;20067;-86
2023/02/02 10:33:39;;;;;;;14.25;6.90;;;25.10;99.90;;;;;;5052340;28;20052;-86
2023/02/02 10:36:27;;;;;;;17.70;7.63;;;26.10;99.90;;;;;;5051656;28;20029;-86
2023/02/02 10:39:02;;;;;;;19.17;7.47;;;26.50;99.90;;;;;;5051919;28;20358;-86
2023/02/02 10:41:37;;;;;;;13.98;7.53;;;27.60;99.90;;;;;;5034491;28;20112;-86
2023/02/02 10:44:08;;;;;;;16.65;7.72;;;27.00;99.90;;;;;;5052089;28;20047;-87
2023/02/02 10:46:44;;;;;;;15.95;7.20;;;26.40;99.90;;;;;;5052036;28;20037;-87
2023/02/02 10:49:31;;;;;;;16.10;7.65;;;26.90;99.90;;;;;;5033952;28;20052;-86
2023/02/02 10:52:17;;;;;;;16.70;7.28;;;27.70;99.90;;;;;;5051822;28;20036;-86
2023/02/02 10:54:54;;;;;;;14.82;6.95;;;28.20;99.90;;;;;;5052065;28;20500;-86
2023/02/02 10:57:50;;;;;;;17.20;7.45;;;27.50;99.90;;;;;;5051887;28;20029;-86
2023/02/02 11:00:33;;;;;;;10.70;4.88;;;27.60;99.90;;;;;;5052315;28;20017;-86
2023/02/02 11:03:03;;;;;;;13.63;4.43;;;27.40;99.90;;;;;;5040595;28;20028;-86
2023/02/02 11:08:31;;;;;;;10.13;4.20;;;26.40;99.90;;;;;;5058428;28;20116;-86
2023/02/02 11:10:59;;;;;;;10.10;3.53;;;27.90;99.90;;;;;;5059260;28;20476;-87
2023/02/02 11:13:32;;;;;;;11.82;3.50;;;26.50;99.90;;;;;;5058313;28;20032;-86
2023/02/02 11:16:18;;;;;;;142.48;108.45;;;27.20;99.90;;;;;;5058363;28;20501;-86
2023/02/02 11:18:44;;;;;;;30.95;21.02;;;26.20;99.90;;;;;;5058410;28;20029;-86
2023/02/02 11:21:16;;;;;;;14.30;8.70;;;28.00;99.90;;;;;;5058396;28;20021;-87
2023/02/02 11:24:01;;;;;;;13.48;9.52;;;28.20;99.90;;;;;;5058580;28;20550;-86
2023/02/02 11:26:47;;;;;;;12.20;6.57;;;29.00;99.90;;;;;;5058251;28;20055;-87
2023/02/02 11:29:40;;;;;;;15.60;10.23;;;28.60;99.90;;;;;;5058493;28;20029;-86
2023/02/02 11:32:19;;;;;;;12.35;5.72;;;24.50;99.90;;;;;;5057796;28;20032;-86
2023/02/02 11:34:45;;;;;;;42.47;24.27;;;22.30;99.90;;;;;;5058384;28;20075;-86
2023/02/02 11:37:12;;;;;;;21.60;13.40;;;20.00;99.90;;;;;;5040963;28;20044;-86
2023/02/02 11:39:40;;;;;;;14.38;8.77;;;19.10;99.90;;;;;;5058552;28;20037;-86
2023/02/02 11:42:16;;;;;;;22.50;13.93;;;20.00;99.90;;;;;;5040051;28;20420;-86
2023/02/02 11:44:48;;;;;;;10.65;4.47;;;21.30;99.90;;;;;;5040670;28;20036;-86
2023/02/02 11:47:19;;;;;;;22.17;12.70;;;22.60;99.90;;;;;;5057810;28;20053;-86
2023/02/02 11:49:45;;;;;;;24.00;13.32;;;23.60;99.90;;;;;;5058133;28;20028;-86
2023/02/02 11:52:19;;;;;;;10.40;3.88;;;19.40;99.90;;;;;;5057887;28;20025;-85
2023/02/02 11:54:49;;;;;;;10.10;3.70;;;20.30;99.90;;;;;;5040585;28;20028;-86
2023/02/02 11:57:21;;;;;;;13.68;5.68;;;18.50;99.90;;;;;;5040234;28;20040;-86
2023/02/02 11:59:49;;;;;;;23.92;18.58;;;23.00;99.90;;;;;;5057733;28;20059;-86
2023/02/02 12:02:21;;;;;;;11.48;4.25;;;24.30;99.90;;;;;;5058173;28;20446;-87
2023/02/02 12:04:48;;;;;;;14.70;7.05;;;25.30;99.90;;;;;;5058454;28;20056;-86
2023/02/02 12:07:26;;;;;;;16.60;8.95;;;25.60;99.90;;;;;;5058009;28;20068;-86
2023/02/02 12:09:52;;;;;;;11.13;6.60;;;26.30;99.90;;;;;;5057914;28;20025;-86
2023/02/02 12:12:38;;;;;;;8.85;3.22;;;26.00;99.90;;;;;;5056581;28;20032;-86
2023/02/02 12:15:41;;;;;;;7.95;3.92;;;26.00;99.90;;;;;;5054535;28;20060;-86
2023/02/02 12:18:13;;;;;;;25.42;16.88;;;25.50;99.90;;;;;;5054381;28;20104;-86
2023/02/02 12:20:52;;;;;;;10.82;4.22;;;26.30;99.90;;;;;;5055015;28;20116;-86
2023/02/02 12:23:29;;;;;;;12.65;4.97;;;25.10;99.90;;;;;;5054609;28;20389;-86
2023/02/02 12:26:16;;;;;;;14.90;8.35;;;24.80;99.90;;;;;;5054329;28;20017;-86
2023/02/02 12:29:06;;;;;;;16.67;10.90;;;23.20;99.90;;;;;;5055051;28;20036;-86
2023/02/02 12:31:49;;;;;;;15.45;8.63;;;22.10;99.90;;;;;;5054331;28;20033;-86
2023/02/02 12:34:34;;;;;;;10.30;3.35;;;22.80;99.90;;;;;;5054006;28;20048;-87
2023/02/02 12:37:27;;;;;;;9.80;4.63;;;21.70;99.90;;;;;;5055045;28;20029;-86
2023/02/02 12:40:21;;;;;;;10.00;6.35;;;23.60;99.90;;;;;;5054319;28;20040;-86
2023/02/02 12:42:56;;;;;;;11.90;6.85;;;23.20;99.90;;;;;;5054705;28;20052;-86
2023/02/02 12:45:21;;;;;;;7.97;3.72;;;22.20;99.90;;;;;;5054235;28;20017;-86
2023/02/02 12:47:56;;;;;;;9.93;3.78;;;21.10;99.90;;;;;;5054182;28;20083;-86
2023/02/02 12:50:37;;;;;;;12.30;8.48;;;23.00;99.90;;;;;;5054014;28;20100;-86
2023/02/02 12:53:33;;;;;;;6.90;4.00;;;22.50;99.90;;;;;;5036026;28;20033;-86
2023/02/02 12:56:37;;;;;;;12.27;9.07;;;22.30;99.90;;;;;;5053992;28;20443;-86
2023/02/02 12:59:17;;;;;;;14.40;8.82;;;21.40;99.90;;;;;;4992832;28;20533;-86
2023/02/02 13:01:43;;;;;;;16.20;10.00;;;20.10;99.90;;;;;;4974829;28;20045;-86
2023/02/02 13:04:29;;;;;;;10.00;4.00;;;20.20;99.90;;;;;;4972983;28;20026;-86
2023/02/02 13:07:33;;;;;;;13.27;3.30;;;19.50;99.90;;;;;;4973241;28;20504;-86
2023/02/02 13:10:18;;;;;;;8.48;3.58;;;21.90;99.90;;;;;;4973208;28;20027;-86
2023/02/02 13:12:55;;;;;;;10.88;3.58;;;22.70;99.90;;;;;;4973559;28;20022;-86